createdAt,value
2018-01-11T00:23:32.341Z,6.40
2018-01-11T00:25:59.843Z,6.40
2018-01-11T00:28:27.345Z,6.30
2018-01-11T00:30:55.627Z,6.10
2018-01-11T00:33:23.126Z,6.10
2018-01-11T00:35:50.664Z,6.10
2018-01-11T00:38:18.171Z,5.90
2018-01-11T00:40:45.707Z,5.90
2018-01-11T00:43:13.216Z,6.00
2018-01-11T00:45:41.483Z,5.90
2018-01-11T00:48:09.761Z,5.90
2018-01-11T00:50:38.079Z,5.80
2018-01-11T00:53:05.630Z,5.80
2018-01-11T00:55:33.136Z,5.90
2018-01-11T00:58:00.645Z,6.10
2018-01-11T01:00:28.249Z,6.20
2018-01-11T01:02:55.725Z,6.20
2018-01-11T01:05:23.999Z,6.30
2018-01-11T01:07:51.510Z,6.20
2018-01-11T01:10:19.023Z,6.20
2018-01-11T01:12:47.322Z,6.10
2018-01-11T01:15:14.840Z,6.10
2018-01-11T01:17:42.468Z,6.10
2018-01-11T01:20:09.976Z,6.10
2018-01-11T01:22:38.255Z,6.10
2018-01-11T01:25:06.528Z,6.20
2018-01-11T01:27:34.793Z,6.10
2018-01-11T01:30:03.096Z,6.20
2018-01-11T01:32:30.597Z,6.20
2018-01-11T01:34:58.107Z,6.20
2018-01-11T01:37:25.626Z,6.20
2018-01-11T01:39:53.121Z,6.30
2018-01-11T01:42:20.629Z,6.30
2018-01-11T01:44:48.125Z,6.50
2018-01-11T01:47:16.453Z,6.20
2018-01-11T01:49:43.996Z,6.20
2018-01-11T01:52:11.494Z,6.30
2018-01-11T01:54:39.032Z,6.10
2018-01-11T01:57:06.599Z,6.20
2018-01-11T01:59:34.107Z,6.10
2018-01-11T02:02:01.622Z,6.20
2018-01-11T02:04:29.142Z,6.30
2018-01-11T02:06:56.637Z,6.30
2018-01-11T02:09:24.149Z,6.30
2018-01-11T02:11:51.714Z,6.20
2018-01-11T02:14:19.263Z,6.20
2018-01-11T02:16:46.771Z,6.30
2018-01-11T02:19:14.290Z,6.30
2018-01-11T02:21:41.808Z,6.20
2018-01-11T02:24:09.343Z,6.20
2018-01-11T02:26:36.860Z,6.20
2018-01-11T02:29:04.391Z,6.20
2018-01-11T02:31:32.652Z,6.10
2018-01-11T02:34:00.175Z,6.10
2018-01-11T02:36:27.692Z,6.10
2018-01-11T02:38:55.987Z,6.20
2018-01-11T02:41:23.505Z,6.20
2018-01-11T02:43:51.022Z,6.20
2018-01-11T02:46:18.536Z,6.20
2018-01-11T02:48:46.042Z,6.20
2018-01-11T02:51:13.568Z,6.30
2018-01-11T02:53:41.091Z,6.30
2018-01-11T02:56:08.594Z,6.20
2018-01-11T02:58:36.118Z,6.10
2018-01-11T03:01:04.394Z,6.30
2018-01-11T03:03:31.933Z,6.30
2018-01-11T03:05:59.454Z,6.20
2018-01-11T03:08:26.988Z,6.10
2018-01-11T03:10:55.268Z,6.30
2018-01-11T03:13:23.562Z,6.30
2018-01-11T03:15:51.118Z,6.30
2018-01-11T03:18:18.652Z,6.20
2018-01-11T03:20:46.927Z,6.20
2018-01-11T03:23:15.209Z,6.20
2018-01-11T03:25:43.496Z,5.90
2018-01-11T03:28:11.010Z,5.90
2018-01-11T03:30:38.541Z,6.00
2018-01-11T03:33:06.062Z,6.00
2018-01-11T03:35:34.343Z,5.80
2018-01-11T03:38:02.617Z,6.00
2018-01-11T03:40:30.903Z,6.20
2018-01-11T03:42:58.412Z,6.20
2018-01-11T03:45:25.905Z,6.00
2018-01-11T03:47:54.223Z,6.00
2018-01-11T03:50:21.722Z,6.00
2018-01-11T03:52:49.253Z,6.00
2018-01-11T03:55:16.767Z,6.00
2018-01-11T03:57:44.289Z,6.20
2018-01-11T04:00:11.922Z,6.20
2018-01-11T04:02:39.444Z,6.20
2018-01-11T04:05:06.970Z,6.10
2018-01-11T04:07:34.488Z,5.70
2018-01-11T04:10:02.006Z,5.70
2018-01-11T04:12:30.292Z,5.80
2018-01-11T04:14:57.912Z,5.70
2018-01-11T04:17:25.413Z,5.90
2018-01-11T04:19:52.943Z,5.80
2018-01-11T04:22:20.451Z,5.80
2018-01-11T04:24:47.973Z,6.00
2018-01-11T04:27:16.256Z,5.80
2018-01-11T04:29:44.544Z,5.70
2018-01-11T04:32:12.050Z,5.70
2018-01-11T04:34:39.588Z,5.60
2018-01-11T04:37:07.098Z,5.70
2018-01-11T04:39:35.391Z,5.70
2018-01-11T04:42:02.896Z,5.70
2018-01-11T04:44:30.411Z,5.70
2018-01-11T04:46:57.910Z,6.00
2018-01-11T04:49:25.439Z,6.00
2018-01-11T04:51:52.993Z,5.90
2018-01-11T04:54:20.523Z,5.70
2018-01-11T04:56:48.797Z,5.70
2018-01-11T04:59:16.327Z,5.70
2018-01-11T05:01:43.839Z,5.80
2018-01-11T05:04:11.362Z,6.10
2018-01-11T05:06:38.882Z,6.30
2018-01-11T05:09:06.389Z,6.20
2018-01-11T05:11:35.408Z,5.90
2018-01-11T05:14:02.931Z,5.90
2018-01-11T05:16:30.452Z,5.80
2018-01-11T05:18:57.981Z,5.80
2018-01-11T05:21:26.257Z,6.10
2018-01-11T05:23:54.553Z,6.30
2018-01-11T05:26:22.076Z,6.30
2018-01-11T05:28:50.358Z,6.40
2018-01-11T05:31:18.648Z,6.50
2018-01-11T05:33:46.184Z,6.50
2018-01-11T05:36:14.450Z,6.20
2018-01-11T05:38:41.975Z,6.20
2018-01-11T05:41:09.482Z,6.20
2018-01-11T05:43:37.756Z,6.20
2018-01-11T05:46:06.040Z,6.10
2018-01-11T05:48:34.317Z,6.10
2018-01-11T05:51:02.595Z,5.90
2018-01-11T05:53:30.873Z,5.80
2018-01-11T05:55:58.383Z,5.80
2018-01-11T05:58:25.901Z,5.70
2018-01-11T06:00:53.571Z,5.70
2018-01-11T06:03:21.085Z,5.70
2018-01-11T06:05:49.359Z,5.80
2018-01-11T06:08:16.889Z,5.80
2018-01-11T06:10:44.408Z,5.80
2018-01-11T06:13:11.926Z,5.90
2018-01-11T06:15:39.435Z,5.90
2018-01-11T06:18:06.993Z,5.90
2018-01-11T06:20:34.508Z,5.90
2018-01-11T06:23:02.038Z,5.90
2018-01-11T06:25:29.529Z,6.00
2018-01-11T06:27:57.131Z,6.00
2018-01-11T06:30:24.634Z,6.00
2018-01-11T06:32:52.164Z,6.10
2018-01-11T06:35:19.675Z,6.10
2018-01-11T06:37:47.975Z,5.80
2018-01-11T06:40:15.521Z,5.80
2018-01-11T06:42:43.779Z,5.80
2018-01-11T06:45:11.307Z,5.70
2018-01-11T06:47:38.800Z,5.80
2018-01-11T06:50:07.082Z,5.90
2018-01-11T06:52:35.355Z,5.90
2018-01-11T06:55:03.661Z,6.00
2018-01-11T06:57:31.171Z,6.00
2018-01-11T06:59:58.703Z,5.90
2018-01-11T07:02:26.196Z,5.70
2018-01-11T07:04:53.732Z,5.60
2018-01-11T07:07:21.239Z,5.70
2018-01-11T07:09:48.763Z,5.90
2018-01-11T07:12:16.261Z,6.00
2018-01-11T07:14:43.776Z,6.20
2018-01-11T07:17:11.283Z,6.30
2018-01-11T07:19:38.822Z,6.00
2018-01-11T07:22:06.338Z,6.00
2018-01-11T07:24:33.845Z,6.20
2018-01-11T07:27:01.427Z,6.20
2018-01-11T07:29:28.937Z,6.00
2018-01-11T07:31:57.201Z,5.80
2018-01-11T07:34:24.727Z,5.80
2018-01-11T07:36:52.230Z,5.80
2018-01-11T07:39:19.758Z,6.00
2018-01-11T07:41:47.276Z,6.00
2018-01-11T07:44:14.789Z,6.10
2018-01-11T07:46:42.289Z,6.30
2018-01-11T07:49:09.820Z,6.20
2018-01-11T07:51:37.336Z,6.20
2018-01-11T07:54:04.862Z,6.10
2018-01-11T07:56:32.361Z,6.00
2018-01-11T07:58:59.892Z,6.00
2018-01-11T08:01:27.398Z,6.00
2018-01-11T08:03:54.901Z,6.10
2018-01-11T08:06:22.415Z,6.30
2018-01-11T08:08:49.947Z,6.40
2018-01-11T08:11:17.482Z,6.50
2018-01-11T08:13:44.993Z,6.20
2018-01-11T08:16:12.503Z,6.00
2018-01-11T08:18:40.046Z,5.90
2018-01-11T08:21:07.630Z,5.80
2018-01-11T08:23:35.177Z,5.80
2018-01-11T08:26:02.692Z,5.70
2018-01-11T08:28:30.215Z,5.70
2018-01-11T08:30:57.703Z,5.60
2018-01-11T08:33:25.206Z,5.60
2018-01-11T08:35:52.728Z,5.80
2018-01-11T08:38:20.241Z,6.00
2018-01-11T08:40:47.750Z,6.20
2018-01-11T08:43:16.043Z,6.50
2018-01-11T08:45:44.302Z,6.40
2018-01-11T08:48:12.594Z,6.20
2018-01-11T08:50:40.095Z,6.20
2018-01-11T08:53:07.614Z,6.40
2018-01-11T08:55:35.178Z,6.20
2018-01-11T08:58:02.706Z,6.20
2018-01-11T09:00:30.224Z,5.90
2018-01-11T09:02:57.747Z,5.80
2018-01-11T09:05:25.313Z,5.70
2018-01-11T09:07:52.825Z,5.90
2018-01-11T09:10:20.326Z,6.00
2018-01-11T09:12:47.830Z,6.10
2018-01-11T09:15:15.359Z,6.20
2018-01-11T09:17:42.860Z,6.10
2018-01-11T09:20:10.370Z,6.00
2018-01-11T09:22:37.878Z,6.00
2018-01-11T09:25:05.399Z,6.00
2018-01-11T09:27:32.896Z,5.90
2018-01-11T09:30:00.406Z,6.00
2018-01-11T09:32:27.905Z,6.10
2018-01-11T09:34:55.433Z,6.20
2018-01-11T09:37:22.937Z,6.40
2018-01-11T09:39:50.548Z,6.50
2018-01-11T09:42:18.068Z,6.40
2018-01-11T09:44:46.380Z,6.20
2018-01-11T09:47:13.896Z,6.20
2018-01-11T09:49:41.421Z,6.20
2018-01-11T09:52:08.918Z,6.30
2018-01-11T09:54:37.215Z,6.40
2018-01-11T09:57:04.732Z,6.40
2018-01-11T09:59:32.241Z,6.40
2018-01-11T10:01:59.752Z,6.40
2018-01-11T10:04:27.283Z,6.30
2018-01-11T10:06:54.778Z,6.30
2018-01-11T10:09:23.053Z,6.30
2018-01-11T10:11:50.660Z,6.30
2018-01-11T10:14:18.188Z,6.30
2018-01-11T10:16:46.486Z,6.40
2018-01-11T10:19:14.043Z,6.40
2018-01-11T10:21:41.546Z,6.40
2018-01-11T10:24:09.072Z,6.30
2018-01-11T10:26:36.628Z,6.30
2018-01-11T10:29:04.169Z,6.20
2018-01-11T10:31:31.696Z,6.30
2018-01-11T10:33:59.209Z,6.30
2018-01-11T10:36:26.759Z,6.40
2018-01-11T10:38:54.286Z,6.50
2018-01-11T10:41:22.567Z,6.80
2018-01-11T10:43:50.869Z,7.00
2018-01-11T10:46:18.386Z,7.00
2018-01-11T10:48:45.912Z,7.10
2018-01-11T10:51:13.417Z,6.90
2018-01-11T10:53:41.719Z,6.80
2018-01-11T10:56:09.235Z,6.80
2018-01-11T10:58:36.772Z,6.70
2018-01-11T11:01:10.865Z,6.60
2018-01-11T11:03:38.396Z,6.60
2018-01-11T11:06:05.921Z,6.60
2018-01-11T11:08:33.536Z,6.60
2018-01-11T11:11:01.087Z,6.70
2018-01-11T11:13:28.604Z,6.70
2018-01-11T11:15:56.918Z,6.80
2018-01-11T11:18:24.464Z,6.80
2018-01-11T11:20:52.030Z,6.90
2018-01-11T11:23:19.581Z,7.10
2018-01-11T11:25:47.146Z,7.10
2018-01-11T11:28:14.665Z,7.10
2018-01-11T11:30:42.275Z,7.20
2018-01-11T11:33:09.800Z,7.30
2018-01-11T11:35:39.031Z,7.20
2018-01-11T11:38:06.586Z,7.20
2018-01-11T11:40:34.100Z,7.10
2018-01-11T11:43:01.618Z,7.10
2018-01-11T11:45:29.118Z,7.10
2018-01-11T11:47:56.769Z,7.10
2018-01-11T11:50:24.266Z,7.10
2018-01-11T11:52:52.540Z,7.10
2018-01-11T11:55:20.821Z,7.20
2018-01-11T11:57:48.336Z,7.10
2018-01-11T12:00:15.864Z,7.20
2018-01-11T12:02:43.368Z,7.20
2018-01-11T12:05:10.976Z,7.20
2018-01-11T12:07:38.495Z,7.30
2018-01-11T12:10:06.100Z,7.30
2018-01-11T12:12:33.608Z,7.30
2018-01-11T12:15:01.141Z,7.30
2018-01-11T12:17:28.633Z,7.30
2018-01-11T12:19:56.931Z,7.30
2018-01-11T12:22:24.435Z,7.30
2018-01-11T12:24:51.950Z,7.30
2018-01-11T12:27:19.464Z,7.40
2018-01-11T12:29:47.805Z,7.50
2018-01-11T12:32:15.347Z,7.50
2018-01-11T12:34:42.872Z,7.40
2018-01-11T12:37:10.393Z,7.50
2018-01-11T12:39:38.017Z,7.50
2018-01-11T12:42:05.534Z,7.40
2018-01-11T12:44:33.126Z,7.30
2018-01-11T12:47:01.436Z,7.40
2018-01-11T12:49:28.994Z,7.40
2018-01-11T12:51:56.608Z,7.40
2018-01-11T12:54:24.097Z,7.40
2018-01-11T12:56:51.589Z,7.30
2018-01-11T12:59:19.101Z,7.30
2018-01-11T13:01:46.602Z,7.30
2018-01-11T13:04:14.221Z,7.30
2018-01-11T13:06:41.748Z,7.20
2018-01-11T13:09:09.262Z,7.20
2018-01-11T13:11:36.766Z,7.30
2018-01-11T13:14:04.300Z,7.30
2018-01-11T13:16:31.799Z,7.50
2018-01-11T13:19:00.074Z,7.80
2018-01-11T13:21:28.343Z,7.80
2018-01-11T13:23:55.854Z,7.80
2018-01-11T13:26:23.341Z,7.60
2018-01-11T13:28:51.618Z,7.70
2018-01-11T13:31:19.126Z,7.70
2018-01-11T13:33:46.633Z,7.60
2018-01-11T13:36:14.144Z,7.60
2018-01-11T13:38:41.663Z,7.60
2018-01-11T13:41:09.172Z,7.60
2018-01-11T13:43:36.709Z,7.50
2018-01-11T13:46:04.209Z,7.40
2018-01-11T13:48:31.740Z,7.40
2018-01-11T13:50:59.248Z,7.50
2018-01-11T13:53:26.756Z,7.50
2018-01-11T13:55:54.272Z,7.40
2018-01-11T13:58:22.584Z,7.40
2018-01-11T14:00:50.077Z,7.40
2018-01-11T14:03:17.607Z,7.40
2018-01-11T14:05:45.115Z,7.40
2018-01-11T14:08:12.621Z,7.50
2018-01-11T14:10:40.118Z,7.40
2018-01-11T14:13:07.645Z,7.30
2018-01-11T14:15:35.164Z,7.30
2018-01-11T14:18:03.444Z,7.20
2018-01-11T14:20:31.716Z,7.20
2018-01-11T14:22:59.264Z,7.20
2018-01-11T14:25:26.762Z,7.30
2018-01-11T14:27:54.259Z,7.20
2018-01-11T14:30:21.792Z,7.20
2018-01-11T14:32:49.312Z,7.10
2018-01-11T14:35:17.653Z,7.00
2018-01-11T14:37:45.142Z,7.00
2018-01-11T14:40:13.426Z,7.20
2018-01-11T14:42:41.695Z,7.00
2018-01-11T14:45:09.996Z,6.90
2018-01-11T14:47:37.501Z,6.90
2018-01-11T14:50:05.035Z,6.90
2018-01-11T14:52:32.541Z,6.90
2018-01-11T14:55:00.827Z,6.80
2018-01-11T14:57:29.093Z,6.80
2018-01-11T14:59:57.404Z,6.70
2018-01-11T15:02:24.906Z,6.70
2018-01-11T15:04:52.444Z,6.70
2018-01-11T15:07:19.969Z,6.70
2018-01-11T15:09:47.486Z,6.70
2018-01-11T15:12:15.002Z,6.70
2018-01-11T15:14:42.517Z,6.70
2018-01-11T15:17:10.786Z,6.70
2018-01-11T15:19:38.414Z,6.70
2018-01-11T15:22:05.958Z,6.70
2018-01-11T15:24:33.475Z,6.60
2018-01-11T15:27:01.097Z,6.80
2018-01-11T15:29:28.613Z,6.90
2018-01-11T15:31:56.896Z,7.20
2018-01-11T15:34:24.476Z,7.20
2018-01-11T15:36:52.006Z,7.10
2018-01-11T15:39:19.547Z,6.90
2018-01-11T15:41:48.547Z,6.80
2018-01-11T15:44:16.895Z,6.70
2018-01-11T15:46:45.910Z,6.60
2018-01-11T15:49:13.440Z,6.60
2018-01-11T15:51:40.955Z,6.70
2018-01-11T15:54:09.225Z,6.60
2018-01-11T15:56:36.745Z,6.60
2018-01-11T15:59:04.279Z,6.70
2018-01-11T16:01:31.787Z,6.80
2018-01-11T16:04:00.092Z,6.50
2018-01-11T16:06:27.604Z,6.50
2018-01-11T16:08:55.137Z,6.60
2018-01-11T16:11:22.661Z,6.60
2018-01-11T16:13:50.177Z,6.50
2018-01-11T16:16:17.674Z,6.40
2018-01-11T16:18:45.190Z,6.40
2018-01-11T16:21:12.706Z,6.30
2018-01-11T16:23:40.231Z,6.30
2018-01-11T16:26:08.529Z,6.30
2018-01-11T16:28:36.033Z,6.30
2018-01-11T16:31:03.571Z,6.30
2018-01-11T16:33:31.081Z,6.30
2018-01-11T16:35:59.350Z,6.30
2018-01-11T16:38:27.646Z,6.40
2018-01-11T16:40:55.931Z,6.50
2018-01-11T16:43:23.464Z,6.50
2018-01-11T16:45:51.748Z,6.30
2018-01-11T16:48:20.026Z,6.40
2018-01-11T16:50:48.302Z,6.60
2018-01-11T16:53:16.586Z,6.40
2018-01-11T16:55:44.840Z,6.30
2018-01-11T16:58:12.385Z,6.30
2018-01-11T17:00:39.887Z,6.30
2018-01-11T17:03:07.466Z,6.20
2018-01-11T17:05:34.981Z,6.30
2018-01-11T17:08:03.277Z,6.30
2018-01-11T17:10:30.811Z,6.30
2018-01-11T17:12:58.322Z,6.30
2018-01-11T17:15:25.838Z,6.20
2018-01-11T17:17:54.124Z,6.50
2018-01-11T17:20:21.651Z,6.50
2018-01-11T17:22:49.167Z,6.30
2018-01-11T17:25:16.690Z,6.30
2018-01-11T17:27:44.960Z,6.30
2018-01-11T17:30:13.251Z,6.20
2018-01-11T17:32:41.556Z,6.20
2018-01-11T17:35:09.050Z,6.20
2018-01-11T17:37:36.549Z,6.40
2018-01-11T17:40:04.069Z,6.60
2018-01-11T17:42:31.674Z,6.80
2018-01-11T17:44:59.194Z,6.80
2018-01-11T17:47:26.715Z,6.70
2018-01-11T17:49:54.226Z,6.60
2018-01-11T17:52:22.500Z,6.50
2018-01-11T17:54:50.795Z,6.60
2018-01-11T17:57:18.312Z,6.60
2018-01-11T17:59:45.826Z,6.60
2018-01-11T18:02:13.338Z,6.50
2018-01-11T18:04:40.853Z,6.40
2018-01-11T18:07:08.372Z,6.30
2018-01-11T18:09:36.680Z,6.20
2018-01-11T18:12:04.197Z,6.20
2018-01-11T18:14:32.492Z,6.10
2018-01-11T18:17:00.754Z,6.20
2018-01-11T18:19:28.289Z,6.20
2018-01-11T18:21:55.794Z,6.30
2018-01-11T18:24:23.313Z,6.20
2018-01-11T18:26:50.845Z,6.20
2018-01-11T18:29:18.380Z,6.20
2018-01-11T18:31:45.886Z,6.30
2018-01-11T18:34:13.404Z,6.30
2018-01-11T18:36:40.908Z,6.40
2018-01-11T18:39:08.413Z,6.60
2018-01-11T18:41:35.923Z,6.50
2018-01-11T18:44:03.447Z,6.20
2018-01-11T18:46:30.956Z,6.20
2018-01-11T18:48:58.475Z,6.30
2018-01-11T18:51:25.986Z,6.30
2018-01-11T18:53:53.502Z,6.20
2018-01-11T18:56:21.010Z,6.20
2018-01-11T18:58:48.544Z,6.40
2018-01-11T19:01:16.832Z,6.60
2018-01-11T19:03:45.131Z,6.50
2018-01-11T19:06:12.630Z,6.50
2018-01-11T19:08:40.206Z,6.30
2018-01-11T19:11:07.691Z,6.40
2018-01-11T19:13:35.221Z,6.50
2018-01-11T19:16:02.734Z,6.40
2018-01-11T19:18:30.261Z,6.30
2018-01-11T19:20:57.766Z,6.10
2018-01-11T19:23:25.286Z,6.00
2018-01-11T19:25:52.794Z,6.00
2018-01-11T19:28:20.359Z,6.20
2018-01-11T19:30:47.855Z,6.40
2018-01-11T19:33:15.392Z,6.30
2018-01-11T19:35:43.658Z,6.00
2018-01-11T19:38:11.166Z,6.00
2018-01-11T19:40:38.675Z,5.90
2018-01-11T19:43:06.293Z,6.10
2018-01-11T19:45:33.807Z,6.20
2018-01-11T19:48:02.070Z,6.00
2018-01-11T19:50:29.577Z,6.00
2018-01-11T19:52:57.087Z,5.80
2018-01-11T19:55:26.124Z,5.70
2018-01-11T19:57:53.625Z,5.70
2018-01-11T20:00:21.160Z,5.70
2018-01-11T20:02:48.676Z,5.80
2018-01-11T20:05:16.958Z,5.80
2018-01-11T20:07:45.235Z,5.70
2018-01-11T20:10:13.515Z,5.60
2018-01-11T20:12:41.032Z,5.60
2018-01-11T20:15:08.551Z,5.60
2018-01-11T20:17:36.070Z,5.60
2018-01-11T20:20:04.350Z,5.80
2018-01-11T20:22:32.629Z,5.90
2018-01-11T20:25:00.923Z,6.00
2018-01-11T20:27:28.423Z,6.00
2018-01-11T20:29:55.939Z,5.90
2018-01-11T20:32:23.460Z,5.80
2018-01-11T20:34:51.037Z,5.90
2018-01-11T20:37:18.569Z,5.80
2018-01-11T20:39:46.042Z,5.80
2018-01-11T20:42:13.547Z,6.10
2018-01-11T20:44:41.080Z,6.30
2018-01-11T20:47:09.360Z,5.70
2018-01-11T20:49:36.915Z,5.70
2018-01-11T20:52:05.196Z,5.70
2018-01-11T20:54:32.726Z,5.70
2018-01-11T20:57:00.240Z,5.90
2018-01-11T20:59:27.751Z,6.00
2018-01-11T21:01:56.031Z,6.00
2018-01-11T21:04:24.324Z,5.90
2018-01-11T21:06:51.817Z,5.90
2018-01-11T21:09:19.330Z,5.80
2018-01-11T21:11:47.606Z,5.90
2018-01-11T21:14:15.908Z,5.60
2018-01-11T21:16:43.424Z,5.60
2018-01-11T21:19:11.718Z,5.80
2018-01-11T21:21:40.005Z,5.90
2018-01-11T21:24:07.518Z,5.80
2018-01-11T21:26:35.046Z,5.70
2018-01-11T21:29:02.569Z,5.90
2018-01-11T21:31:30.093Z,5.80
2018-01-11T21:33:57.609Z,5.80
2018-01-11T21:36:25.128Z,5.80
2018-01-11T21:38:53.429Z,5.90
2018-01-11T21:41:21.013Z,5.90
2018-01-11T21:43:48.548Z,5.70
2018-01-11T21:46:16.053Z,5.60
2018-01-11T21:48:43.584Z,5.70
2018-01-11T21:51:11.090Z,5.40
2018-01-11T21:53:38.621Z,5.50
2018-01-11T21:56:06.122Z,5.60
2018-01-11T21:58:34.393Z,5.50
2018-01-11T22:01:02.669Z,5.20
2018-01-11T22:03:30.181Z,5.20
2018-01-11T22:05:57.681Z,5.10
2018-01-11T22:08:25.189Z,5.20
2018-01-11T22:10:52.706Z,5.30
2018-01-11T22:13:20.986Z,5.20
2018-01-11T22:15:49.263Z,5.20
2018-01-11T22:18:17.551Z,5.10
2018-01-11T22:20:45.077Z,5.10
2018-01-11T22:23:12.606Z,5.00
2018-01-11T22:25:40.105Z,5.00
2018-01-11T22:28:08.385Z,5.10
2018-01-11T22:30:36.668Z,5.00
2018-01-11T22:33:04.952Z,4.80
2018-01-11T22:35:32.476Z,4.80
2018-01-11T22:37:59.977Z,4.60
2018-01-11T22:40:27.498Z,4.80
2018-01-11T22:42:55.001Z,5.00
2018-01-11T22:45:22.518Z,5.00
2018-01-11T22:47:50.028Z,4.70
2018-01-11T22:50:17.544Z,4.50
2018-01-11T22:52:45.824Z,4.80
2018-01-11T22:55:14.116Z,5.00
2018-01-11T22:57:41.614Z,4.90
2018-01-11T23:00:09.135Z,4.80
2018-01-11T23:02:36.634Z,4.70
2018-01-11T23:05:04.151Z,5.00
2018-01-11T23:07:31.664Z,5.10
2018-01-11T23:09:59.169Z,5.30
2018-01-11T23:12:26.696Z,4.90
2018-01-11T23:14:54.210Z,4.50
2018-01-11T23:17:21.716Z,4.40
2018-01-11T23:19:49.244Z,4.40
2018-01-11T23:22:16.729Z,4.40
2018-01-11T23:24:44.244Z,4.30
2018-01-11T23:27:11.753Z,4.30
2018-01-11T23:29:39.276Z,4.40
2018-01-11T23:32:06.770Z,4.40
2018-01-11T23:34:34.292Z,4.40
2018-01-11T23:37:01.796Z,4.40
2018-01-11T23:39:30.070Z,4.30
2018-01-11T23:41:58.344Z,4.30
2018-01-11T23:44:26.631Z,4.20
2018-01-11T23:46:54.140Z,4.20
2018-01-11T23:49:21.670Z,4.20
2018-01-11T23:51:49.162Z,4.10
2018-01-11T23:54:16.677Z,4.10
2018-01-11T23:56:44.169Z,4.10
2018-01-11T23:59:11.701Z,4.10
